sensor_id;sensor_type;location;lat;lon;timestamp;pressure;altitude;pressure_sealevel;temperature;humidity
49423;BME280;36998;51.974;20.150;2022-07-23T00:01:21;100081.50;;;23.06;55.59
49423;BME280;36998;51.974;20.150;2022-07-23T00:03:47;100091.94;;;23.04;55.70
49423;BME280;36998;51.974;20.150;2022-07-23T00:06:12;100093.75;;;22.99;55.84
49423;BME280;36998;51.974;20.150;2022-07-23T00:08:40;100090.09;;;22.93;56.24
49423;BME280;36998;51.974;20.150;2022-07-23T00:11:06;100088.91;;;22.89;56.39
49423;BME280;36998;51.974;20.150;2022-07-23T00:13:57;100092.38;;;22.84;56.46
49423;BME280;36998;51.974;20.150;2022-07-23T00:16:23;100090.41;;;22.80;56.33
49423;BME280;36998;51.974;20.150;2022-07-23T00:19:17;100091.47;;;22.79;56.72
49423;BME280;36998;51.974;20.150;2022-07-23T00:21:43;100098.56;;;22.75;56.89
49423;BME280;36998;51.974;20.150;2022-07-23T00:24:08;100107.31;;;22.72;56.86
49423;BME280;36998;51.974;20.150;2022-07-23T00:26:34;100106.13;;;22.67;57.18
49423;BME280;36998;51.974;20.150;2022-07-23T00:28:59;100093.97;;;22.63;57.32
49423;BME280;36998;51.974;20.150;2022-07-23T00:31:25;100101.88;;;22.60;57.45
49423;BME280;36998;51.974;20.150;2022-07-23T00:33:50;100103.19;;;22.57;57.69
49423;BME280;36998;51.974;20.150;2022-07-23T00:36:16;100105.34;;;22.55;57.80
49423;BME280;36998;51.974;20.150;2022-07-23T00:38:41;100106.66;;;22.53;57.76
49423;BME280;36998;51.974;20.150;2022-07-23T00:41:07;100102.53;;;22.50;57.90
49423;BME280;36998;51.974;20.150;2022-07-23T00:43:32;100111.25;;;22.47;57.85
49423;BME280;36998;51.974;20.150;2022-07-23T00:45:58;100112.81;;;22.43;58.21
49423;BME280;36998;51.974;20.150;2022-07-23T00:48:23;100111.41;;;22.40;58.21
49423;BME280;36998;51.974;20.150;2022-07-23T00:50:49;100108.31;;;22.37;58.11
49423;BME280;36998;51.974;20.150;2022-07-23T00:53:15;100104.97;;;22.35;58.44
49423;BME280;36998;51.974;20.150;2022-07-23T00:55:41;100106.53;;;22.31;58.66
49423;BME280;36998;51.974;20.150;2022-07-23T00:58:06;100105.94;;;22.29;58.57
49423;BME280;36998;51.974;20.150;2022-07-23T01:00:33;100105.34;;;22.27;58.59
49423;BME280;36998;51.974;20.150;2022-07-23T01:02:58;100102.25;;;22.23;58.74
49423;BME280;36998;51.974;20.150;2022-07-23T01:05:24;100106.09;;;22.22;59.11
49423;BME280;36998;51.974;20.150;2022-07-23T01:07:51;100104.66;;;22.19;59.11
49423;BME280;36998;51.974;20.150;2022-07-23T01:10:17;100111.25;;;22.18;59.29
49423;BME280;36998;51.974;20.150;2022-07-23T01:15:28;100110.03;;;22.14;59.31
49423;BME280;36998;51.974;20.150;2022-07-23T01:17:53;100112.19;;;22.12;59.43
49423;BME280;36998;51.974;20.150;2022-07-23T01:20:20;100104.19;;;22.11;59.57
49423;BME280;36998;51.974;20.150;2022-07-23T01:22:46;100109.09;;;22.09;59.31
49423;BME280;36998;51.974;20.150;2022-07-23T01:25:12;100112.31;;;22.06;59.45
49423;BME280;36998;51.974;20.150;2022-07-23T01:27:41;100100.50;;;22.05;59.70
49423;BME280;36998;51.974;20.150;2022-07-23T01:30:07;100105.63;;;22.02;59.75
49423;BME280;36998;51.974;20.150;2022-07-23T01:32:33;100099.31;;;22.01;59.80
49423;BME280;36998;51.974;20.150;2022-07-23T01:34:59;100106.34;;;21.97;60.05
49423;BME280;36998;51.974;20.150;2022-07-23T01:37:24;100101.34;;;21.94;60.04
49423;BME280;36998;51.974;20.150;2022-07-23T01:39:50;100096.34;;;21.91;60.23
49423;BME280;36998;51.974;20.150;2022-07-23T01:42:15;100094.44;;;21.91;60.41
49423;BME280;36998;51.974;20.150;2022-07-23T01:44:41;100094.09;;;21.88;60.24
49423;BME280;36998;51.974;20.150;2022-07-23T01:47:11;100091.81;;;21.85;60.48
49423;BME280;36998;51.974;20.150;2022-07-23T01:49:37;100097.78;;;21.82;60.68
49423;BME280;36998;51.974;20.150;2022-07-23T01:52:21;100106.53;;;21.79;60.62
49423;BME280;36998;51.974;20.150;2022-07-23T01:54:49;100100.91;;;21.73;61.00
49423;BME280;36998;51.974;20.150;2022-07-23T01:57:15;100099.25;;;21.72;60.99
49423;BME280;36998;51.974;20.150;2022-07-23T01:59:41;100104.59;;;21.67;61.09
49423;BME280;36998;51.974;20.150;2022-07-23T02:02:08;100099.38;;;21.66;61.36
49423;BME280;36998;51.974;20.150;2022-07-23T02:04:34;100100.44;;;21.65;61.63
49423;BME280;36998;51.974;20.150;2022-07-23T02:07:03;100094.34;;;21.63;61.55
49423;BME280;36998;51.974;20.150;2022-07-23T02:09:29;100088.25;;;21.61;61.62
49423;BME280;36998;51.974;20.150;2022-07-23T02:11:55;100089.59;;;21.58;61.44
49423;BME280;36998;51.974;20.150;2022-07-23T02:14:20;100077.16;;;21.56;61.45
49423;BME280;36998;51.974;20.150;2022-07-23T02:16:46;100082.88;;;21.54;61.85
49423;BME280;36998;51.974;20.150;2022-07-23T02:19:11;100088.84;;;21.51;62.11
49423;BME280;36998;51.974;20.150;2022-07-23T02:21:37;100080.50;;;21.46;61.89
49423;BME280;36998;51.974;20.150;2022-07-23T02:24:03;100078.81;;;21.45;61.87
49423;BME280;36998;51.974;20.150;2022-07-23T02:26:29;100089.72;;;21.40;62.01
49423;BME280;36998;51.974;20.150;2022-07-23T02:28:55;100088.53;;;21.36;62.32
49423;BME280;36998;51.974;20.150;2022-07-23T02:31:21;100090.88;;;21.32;62.56
49423;BME280;36998;51.974;20.150;2022-07-23T02:33:46;100088.25;;;21.25;62.78
49423;BME280;36998;51.974;20.150;2022-07-23T02:36:13;100096.34;;;21.20;63.01
49423;BME280;36998;51.974;20.150;2022-07-23T02:38:40;100095.63;;;21.13;63.17
49423;BME280;36998;51.974;20.150;2022-07-23T02:41:06;100097.66;;;21.06;63.44
49423;BME280;36998;51.974;20.150;2022-07-23T02:43:31;100099.44;;;21.00;63.29
49423;BME280;36998;51.974;20.150;2022-07-23T02:45:57;100106.47;;;20.96;63.71
49423;BME280;36998;51.974;20.150;2022-07-23T02:48:23;100101.47;;;20.93;63.75
49423;BME280;36998;51.974;20.150;2022-07-23T02:50:48;100101.31;;;20.88;63.85
49423;BME280;36998;51.974;20.150;2022-07-23T02:53:25;100103.44;;;20.86;64.08
49423;BME280;36998;51.974;20.150;2022-07-23T02:56:00;100107.53;;;20.84;64.13
49423;BME280;36998;51.974;20.150;2022-07-23T02:58:25;100102.88;;;20.84;64.39
49423;BME280;36998;51.974;20.150;2022-07-23T03:00:52;100106.69;;;20.83;64.56
49423;BME280;36998;51.974;20.150;2022-07-23T03:03:18;100098.81;;;20.87;64.38
49423;BME280;36998;51.974;20.150;2022-07-23T03:05:44;100101.78;;;20.85;64.48
49423;BME280;36998;51.974;20.150;2022-07-23T03:08:09;100102.63;;;20.86;64.40
49423;BME280;36998;51.974;20.150;2022-07-23T03:10:37;100094.38;;;20.86;64.76
49423;BME280;36998;51.974;20.150;2022-07-23T03:13:03;100102.41;;;20.87;64.52
49423;BME280;36998;51.974;20.150;2022-07-23T03:15:29;100106.19;;;20.86;64.66
49423;BME280;36998;51.974;20.150;2022-07-23T03:17:55;100102.41;;;20.87;64.63
49423;BME280;36998;51.974;20.150;2022-07-23T03:20:20;100107.06;;;20.87;64.60
49423;BME280;36998;51.974;20.150;2022-07-23T03:22:46;100116.13;;;20.87;64.47
49423;BME280;36998;51.974;20.150;2022-07-23T03:25:11;100099.66;;;20.87;64.82
49423;BME280;36998;51.974;20.150;2022-07-23T03:27:37;100108.25;;;20.91;64.70
49423;BME280;36998;51.974;20.150;2022-07-23T03:30:04;100113.97;;;20.89;64.90
49423;BME280;36998;51.974;20.150;2022-07-23T03:32:30;100106.34;;;20.91;64.89
49423;BME280;36998;51.974;20.150;2022-07-23T03:34:56;100115.78;;;20.95;64.80
49423;BME280;36998;51.974;20.150;2022-07-23T03:37:22;100104.56;;;20.97;64.74
49423;BME280;36998;51.974;20.150;2022-07-23T03:39:48;100104.09;;;21.00;64.82
49423;BME280;36998;51.974;20.150;2022-07-23T03:42:14;100114.97;;;21.07;64.74
49423;BME280;36998;51.974;20.150;2022-07-23T03:44:39;100098.84;;;21.10;64.27
49423;BME280;36998;51.974;20.150;2022-07-23T03:47:05;100092.88;;;21.13;64.41
49423;BME280;36998;51.974;20.150;2022-07-23T03:49:32;100107.56;;;21.19;64.45
49423;BME280;36998;51.974;20.150;2022-07-23T03:51:58;100108.16;;;21.21;64.14
49423;BME280;36998;51.974;20.150;2022-07-23T03:54:24;100104.13;;;21.23;64.22
49423;BME280;36998;51.974;20.150;2022-07-23T03:56:49;100106.13;;;21.28;63.91
49423;BME280;36998;51.974;20.150;2022-07-23T03:59:15;100094.19;;;21.34;64.11
49423;BME280;36998;51.974;20.150;2022-07-23T04:01:40;100095.81;;;21.42;63.85
49423;BME280;36998;51.974;20.150;2022-07-23T04:04:06;100092.06;;;21.48;63.21
49423;BME280;36998;51.974;20.150;2022-07-23T04:06:34;100097.09;;;21.51;63.45
49423;BME280;36998;51.974;20.150;2022-07-23T04:09:00;100096.03;;;21.52;63.26
49423;BME280;36998;51.974;20.150;2022-07-23T04:11:28;100088.97;;;21.56;63.08
49423;BME280;36998;51.974;20.150;2022-07-23T04:13:54;100094.56;;;21.61;63.17
49423;BME280;36998;51.974;20.150;2022-07-23T04:16:20;100088.94;;;21.68;63.23
49423;BME280;36998;51.974;20.150;2022-07-23T04:18:46;100092.66;;;21.73;63.03
49423;BME280;36998;51.974;20.150;2022-07-23T04:21:15;100097.19;;;21.80;62.97
49423;BME280;36998;51.974;20.150;2022-07-23T04:23:41;100096.44;;;21.84;62.73
49423;BME280;36998;51.974;20.150;2022-07-23T04:26:06;100093.81;;;21.89;62.31
49423;BME280;36998;51.974;20.150;2022-07-23T04:28:32;100096.91;;;21.93;62.57
49423;BME280;36998;51.974;20.150;2022-07-23T04:30:58;100093.47;;;21.97;62.57
49423;BME280;36998;51.974;20.150;2022-07-23T04:33:23;100097.41;;;22.02;62.46
49423;BME280;36998;51.974;20.150;2022-07-23T04:35:52;100092.84;;;22.07;62.06
49423;BME280;36998;51.974;20.150;2022-07-23T04:38:19;100099.25;;;22.13;62.02
49423;BME280;36998;51.974;20.150;2022-07-23T04:40:46;100096.66;;;22.18;62.04
49423;BME280;36998;51.974;20.150;2022-07-23T04:43:11;100094.84;;;22.24;62.11
49423;BME280;36998;51.974;20.150;2022-07-23T04:45:44;100096.03;;;22.28;61.81
49423;BME280;36998;51.974;20.150;2022-07-23T04:48:10;100090.88;;;22.31;61.88
49423;BME280;36998;51.974;20.150;2022-07-23T04:50:35;100092.88;;;22.36;61.72
49423;BME280;36998;51.974;20.150;2022-07-23T04:53:03;100089.63;;;22.39;61.85
49423;BME280;36998;51.974;20.150;2022-07-23T04:55:29;100089.75;;;22.44;61.53
49423;BME280;36998;51.974;20.150;2022-07-23T04:57:54;100081.34;;;22.51;61.58
49423;BME280;36998;51.974;20.150;2022-07-23T05:00:20;100084.75;;;22.58;61.47
49423;BME280;36998;51.974;20.150;2022-07-23T05:02:45;100092.03;;;22.64;61.26
49423;BME280;36998;51.974;20.150;2022-07-23T05:05:11;100085.78;;;22.68;61.13
49423;BME280;36998;51.974;20.150;2022-07-23T05:07:36;100091.38;;;22.74;61.37
49423;BME280;36998;51.974;20.150;2022-07-23T05:10:02;100088.47;;;22.80;61.26
49423;BME280;36998;51.974;20.150;2022-07-23T05:12:29;100096.56;;;22.87;61.20
49423;BME280;36998;51.974;20.150;2022-07-23T05:14:55;100092.22;;;22.91;61.25
49423;BME280;36998;51.974;20.150;2022-07-23T05:17:20;100091.88;;;22.99;61.33
49423;BME280;36998;51.974;20.150;2022-07-23T05:19:46;100090.00;;;23.05;61.17
49423;BME280;36998;51.974;20.150;2022-07-23T05:22:12;100083.81;;;23.14;60.65
49423;BME280;36998;51.974;20.150;2022-07-23T05:24:37;100088.09;;;23.22;60.74
49423;BME280;36998;51.974;20.150;2022-07-23T05:27:04;100091.19;;;23.26;60.68
49423;BME280;36998;51.974;20.150;2022-07-23T05:29:29;100088.25;;;23.32;60.33
49423;BME280;36998;51.974;20.150;2022-07-23T05:31:55;100084.50;;;23.39;60.33
49423;BME280;36998;51.974;20.150;2022-07-23T05:34:21;100085.38;;;23.44;59.88
49423;BME280;36998;51.974;20.150;2022-07-23T05:36:47;100089.97;;;23.55;59.81
49423;BME280;36998;51.974;20.150;2022-07-23T05:39:14;100095.63;;;23.66;59.72
49423;BME280;36998;51.974;20.150;2022-07-23T05:41:39;100090.56;;;23.74;59.09
49423;BME280;36998;51.974;20.150;2022-07-23T05:44:05;100090.41;;;23.86;59.18
49423;BME280;36998;51.974;20.150;2022-07-23T05:46:33;100089.72;;;23.96;58.70
49423;BME280;36998;51.974;20.150;2022-07-23T05:49:04;100091.78;;;24.05;58.43
49423;BME280;36998;51.974;20.150;2022-07-23T05:51:50;100086.38;;;24.16;57.92
49423;BME280;36998;51.974;20.150;2022-07-23T05:54:23;100086.69;;;24.19;58.08
49423;BME280;36998;51.974;20.150;2022-07-23T05:56:51;100087.34;;;24.26;57.86
49423;BME280;36998;51.974;20.150;2022-07-23T05:59:17;100090.16;;;24.32;57.77
49423;BME280;36998;51.974;20.150;2022-07-23T06:01:43;100084.19;;;24.40;57.63
49423;BME280;36998;51.974;20.150;2022-07-23T06:04:10;100082.91;;;24.47;57.24
49423;BME280;36998;51.974;20.150;2022-07-23T06:06:39;100085.19;;;24.56;57.10
49423;BME280;36998;51.974;20.150;2022-07-23T06:09:06;100082.78;;;24.64;57.39
49423;BME280;36998;51.974;20.150;2022-07-23T06:11:41;100069.34;;;24.73;56.68
49423;BME280;36998;51.974;20.150;2022-07-23T06:14:07;100073.88;;;24.84;56.38
49423;BME280;36998;51.974;20.150;2022-07-23T06:16:54;100076.47;;;24.96;55.88
49423;BME280;36998;51.974;20.150;2022-07-23T06:19:20;100074.31;;;25.03;55.32
49423;BME280;36998;51.974;20.150;2022-07-23T06:21:46;100072.16;;;25.10;55.20
49423;BME280;36998;51.974;20.150;2022-07-23T06:24:11;100073.63;;;25.18;54.79
49423;BME280;36998;51.974;20.150;2022-07-23T06:26:38;100074.78;;;25.27;54.62
49423;BME280;36998;51.974;20.150;2022-07-23T06:29:03;100069.59;;;25.36;54.27
49423;BME280;36998;51.974;20.150;2022-07-23T06:31:29;100070.50;;;25.46;54.22
49423;BME280;36998;51.974;20.150;2022-07-23T06:33:54;100068.06;;;25.55;53.69
49423;BME280;36998;51.974;20.150;2022-07-23T06:36:49;100060.41;;;25.67;53.46
49423;BME280;36998;51.974;20.150;2022-07-23T06:39:14;100067.34;;;25.75;53.40
49423;BME280;36998;51.974;20.150;2022-07-23T06:41:43;100065.19;;;25.82;53.00
49423;BME280;36998;51.974;20.150;2022-07-23T06:44:09;100059.69;;;25.87;52.18
49423;BME280;36998;51.974;20.150;2022-07-23T06:46:35;100060.84;;;25.97;51.50
49423;BME280;36998;51.974;20.150;2022-07-23T06:49:00;100060.31;;;26.05;51.20
49423;BME280;36998;51.974;20.150;2022-07-23T06:51:28;100052.56;;;26.12;51.06
49423;BME280;36998;51.974;20.150;2022-07-23T06:53:53;100047.34;;;26.21;50.56
49423;BME280;36998;51.974;20.150;2022-07-23T06:56:19;100042.13;;;26.29;50.38
49423;BME280;36998;51.974;20.150;2022-07-23T06:58:45;100046.00;;;26.38;49.66
49423;BME280;36998;51.974;20.150;2022-07-23T07:01:10;100042.13;;;26.45;49.76
49423;BME280;36998;51.974;20.150;2022-07-23T07:03:36;100045.50;;;26.52;49.47
49423;BME280;36998;51.974;20.150;2022-07-23T07:06:01;100044.41;;;26.58;48.69
49423;BME280;36998;51.974;20.150;2022-07-23T07:08:27;100039.16;;;26.67;48.85
49423;BME280;36998;51.974;20.150;2022-07-23T07:10:53;100038.59;;;26.75;48.67
49423;BME280;36998;51.974;20.150;2022-07-23T07:13:18;100048.56;;;26.81;48.53
49423;BME280;36998;51.974;20.150;2022-07-23T07:15:44;100041.66;;;26.89;48.61
49423;BME280;36998;51.974;20.150;2022-07-23T07:18:09;100039.44;;;26.96;48.14
49423;BME280;36998;51.974;20.150;2022-07-23T07:20:35;100040.25;;;27.06;47.89
49423;BME280;36998;51.974;20.150;2022-07-23T07:23:00;100045.56;;;27.18;47.09
49423;BME280;36998;51.974;20.150;2022-07-23T07:25:26;100044.16;;;27.26;47.03
49423;BME280;36998;51.974;20.150;2022-07-23T07:27:53;100051.66;;;27.30;46.90
49423;BME280;36998;51.974;20.150;2022-07-23T07:30:19;100044.69;;;27.38;46.41
49423;BME280;36998;51.974;20.150;2022-07-23T07:32:45;100038.03;;;27.44;46.08
49423;BME280;36998;51.974;20.150;2022-07-23T07:35:10;100042.16;;;27.52;45.57
49423;BME280;36998;51.974;20.150;2022-07-23T07:37:36;100044.06;;;27.62;45.29
49423;BME280;36998;51.974;20.150;2022-07-23T07:40:02;100044.34;;;27.70;44.83
49423;BME280;36998;51.974;20.150;2022-07-23T07:42:28;100039.91;;;27.80;44.56
49423;BME280;36998;51.974;20.150;2022-07-23T07:44:53;100039.28;;;27.88;43.93
49423;BME280;36998;51.974;20.150;2022-07-23T07:47:19;100037.28;;;27.98;43.98
49423;BME280;36998;51.974;20.150;2022-07-23T07:49:45;100030.28;;;28.11;43.94
49423;BME280;36998;51.974;20.150;2022-07-23T07:52:10;100034.13;;;28.26;43.94
49423;BME280;36998;51.974;20.150;2022-07-23T07:54:53;100044.56;;;28.44;43.11
49423;BME280;36998;51.974;20.150;2022-07-23T07:57:19;100050.03;;;28.59;42.86
49423;BME280;36998;51.974;20.150;2022-07-23T07:59:44;100050.44;;;28.77;42.51
49423;BME280;36998;51.974;20.150;2022-07-23T08:02:10;100042.56;;;28.89;41.79
49423;BME280;36998;51.974;20.150;2022-07-23T08:04:35;100044.72;;;29.02;41.54
49423;BME280;36998;51.974;20.150;2022-07-23T08:07:00;100042.41;;;29.09;41.76
49423;BME280;36998;51.974;20.150;2022-07-23T08:09:26;100044.63;;;29.12;41.95
49423;BME280;36998;51.974;20.150;2022-07-23T08:11:52;100053.44;;;29.20;41.72
49423;BME280;36998;51.974;20.150;2022-07-23T08:14:18;100049.00;;;29.19;41.58
49423;BME280;36998;51.974;20.150;2022-07-23T08:16:44;100050.03;;;29.28;41.22
49423;BME280;36998;51.974;20.150;2022-07-23T08:19:09;100053.59;;;29.33;41.61
49423;BME280;36998;51.974;20.150;2022-07-23T08:21:35;100053.38;;;29.54;40.99
49423;BME280;36998;51.974;20.150;2022-07-23T08:24:00;100050.16;;;29.71;40.54
49423;BME280;36998;51.974;20.150;2022-07-23T08:26:26;100048.91;;;29.82;40.20
49423;BME280;36998;51.974;20.150;2022-07-23T08:28:51;100053.00;;;29.90;39.79
49423;BME280;36998;51.974;20.150;2022-07-23T08:31:16;100053.59;;;29.86;40.12
49423;BME280;36998;51.974;20.150;2022-07-23T08:33:42;100044.41;;;29.86;40.06
49423;BME280;36998;51.974;20.150;2022-07-23T08:36:08;100041.91;;;29.84;39.44
49423;BME280;36998;51.974;20.150;2022-07-23T08:38:34;100036.56;;;29.88;39.67
49423;BME280;36998;51.974;20.150;2022-07-23T08:41:03;100044.75;;;30.03;39.84
49423;BME280;36998;51.974;20.150;2022-07-23T08:43:31;100046.84;;;30.12;39.16
49423;BME280;36998;51.974;20.150;2022-07-23T08:45:59;100045.41;;;30.14;39.53
49423;BME280;36998;51.974;20.150;2022-07-23T08:48:27;100040.66;;;30.20;39.70
49423;BME280;36998;51.974;20.150;2022-07-23T08:50:59;100041.41;;;30.25;39.32
49423;BME280;36998;51.974;20.150;2022-07-23T08:53:26;100038.31;;;30.27;38.91
49423;BME280;36998;51.974;20.150;2022-07-23T08:55:53;100036.56;;;30.31;38.76
49423;BME280;36998;51.974;20.150;2022-07-23T08:58:19;100030.78;;;30.46;38.23
49423;BME280;36998;51.974;20.150;2022-07-23T09:00:47;100018.22;;;30.49;37.92
49423;BME280;36998;51.974;20.150;2022-07-23T09:03:19;100021.88;;;30.44;37.54
49423;BME280;36998;51.974;20.150;2022-07-23T09:05:45;100015.44;;;30.49;37.58
49423;BME280;36998;51.974;20.150;2022-07-23T09:08:19;100020.69;;;30.50;37.38
49423;BME280;36998;51.974;20.150;2022-07-23T09:11:04;100010.91;;;30.53;37.64
49423;BME280;36998;51.974;20.150;2022-07-23T09:13:36;100010.44;;;30.65;36.22
49423;BME280;36998;51.974;20.150;2022-07-23T09:16:08;100003.41;;;30.67;36.24
49423;BME280;36998;51.974;20.150;2022-07-23T09:18:37;99998.53;;;30.78;36.19
49423;BME280;36998;51.974;20.150;2022-07-23T09:21:10;100003.06;;;31.07;36.46
49423;BME280;36998;51.974;20.150;2022-07-23T09:23:37;99999.78;;;30.86;35.37
49423;BME280;36998;51.974;20.150;2022-07-23T09:29:05;99998.19;;;30.98;34.82
49423;BME280;36998;51.974;20.150;2022-07-23T09:31:46;99988.59;;;31.18;34.31
49423;BME280;36998;51.974;20.150;2022-07-23T09:39:43;99990.00;;;31.62;33.13
49423;BME280;36998;51.974;20.150;2022-07-23T09:42:17;99979.03;;;31.66;32.91
49423;BME280;36998;51.974;20.150;2022-07-23T09:44:44;99982.97;;;31.79;32.76
49423;BME280;36998;51.974;20.150;2022-07-23T09:47:10;99995.16;;;31.97;31.83
49423;BME280;36998;51.974;20.150;2022-07-23T09:50:10;99977.53;;;32.10;31.89
49423;BME280;36998;51.974;20.150;2022-07-23T09:52:46;99977.00;;;32.22;31.63
49423;BME280;36998;51.974;20.150;2022-07-23T09:55:16;99972.78;;;32.47;30.84
49423;BME280;36998;51.974;20.150;2022-07-23T09:57:42;99981.69;;;32.71;30.39
49423;BME280;36998;51.974;20.150;2022-07-23T10:00:11;99961.44;;;33.19;30.49
49423;BME280;36998;51.974;20.150;2022-07-23T10:02:39;99964.44;;;33.31;30.27
49423;BME280;36998;51.974;20.150;2022-07-23T10:05:24;99967.09;;;33.37;31.28
49423;BME280;36998;51.974;20.150;2022-07-23T10:08:11;99964.88;;;33.16;31.13
49423;BME280;36998;51.974;20.150;2022-07-23T10:11:13;99968.59;;;33.03;31.59
49423;BME280;36998;51.974;20.150;2022-07-23T10:13:55;99968.91;;;33.01;31.27
49423;BME280;36998;51.974;20.150;2022-07-23T10:16:50;99958.03;;;33.00;31.81
49423;BME280;36998;51.974;20.150;2022-07-23T10:19:17;99956.25;;;33.04;31.75
49423;BME280;36998;51.974;20.150;2022-07-23T10:21:58;99950.56;;;32.95;31.49
49423;BME280;36998;51.974;20.150;2022-07-23T10:24:39;99948.75;;;32.91;31.43
49423;BME280;36998;51.974;20.150;2022-07-23T10:27:43;99939.78;;;32.80;31.78
49423;BME280;36998;51.974;20.150;2022-07-23T10:33:27;99934.00;;;32.76;31.80
49423;BME280;36998;51.974;20.150;2022-07-23T10:36:23;99952.31;;;32.82;31.86
49423;BME280;36998;51.974;20.150;2022-07-23T10:38:58;99938.91;;;32.93;31.73
49423;BME280;36998;51.974;20.150;2022-07-23T10:41:38;99944.72;;;33.05;31.81
49423;BME280;36998;51.974;20.150;2022-07-23T10:44:16;99942.63;;;33.11;31.08
49423;BME280;36998;51.974;20.150;2022-07-23T10:47:00;99933.28;;;33.24;31.41
49423;BME280;36998;51.974;20.150;2022-07-23T10:49:30;99929.25;;;33.48;30.93
49423;BME280;36998;51.974;20.150;2022-07-23T10:54:47;99931.16;;;33.78;30.43
49423;BME280;36998;51.974;20.150;2022-07-23T10:57:15;99932.34;;;33.95;29.90
49423;BME280;36998;51.974;20.150;2022-07-23T11:02:35;99933.84;;;34.53;29.59
49423;BME280;36998;51.974;20.150;2022-07-23T11:05:04;99922.41;;;34.84;29.29
49423;BME280;36998;51.974;20.150;2022-07-23T11:07:30;99922.09;;;35.24;28.58
49423;BME280;36998;51.974;20.150;2022-07-23T11:09:56;99922.44;;;35.61;27.83
49423;BME280;36998;51.974;20.150;2022-07-23T11:15:08;99905.72;;;36.48;26.94
49423;BME280;36998;51.974;20.150;2022-07-23T11:17:40;99909.91;;;36.63;27.13
49423;BME280;36998;51.974;20.150;2022-07-23T11:20:25;99900.75;;;36.78;26.14
49423;BME280;36998;51.974;20.150;2022-07-23T11:22:58;99901.19;;;37.14;26.25
49423;BME280;36998;51.974;20.150;2022-07-23T11:28:11;99878.19;;;37.36;25.88
49423;BME280;36998;51.974;20.150;2022-07-23T11:30:40;99885.38;;;37.46;25.38
49423;BME280;36998;51.974;20.150;2022-07-23T11:35:33;99890.41;;;38.17;24.21
49423;BME280;36998;51.974;20.150;2022-07-23T11:38:14;99882.47;;;38.79;23.94
49423;BME280;36998;51.974;20.150;2022-07-23T11:40:40;99877.56;;;39.08;23.62
49423;BME280;36998;51.974;20.150;2022-07-23T11:43:08;99872.84;;;40.18;21.72
49423;BME280;36998;51.974;20.150;2022-07-23T11:45:36;99869.75;;;40.65;21.66
49423;BME280;36998;51.974;20.150;2022-07-23T11:48:04;99859.06;;;42.11;19.89
49423;BME280;36998;51.974;20.150;2022-07-23T11:50:30;99865.53;;;43.27;18.67
49423;BME280;36998;51.974;20.150;2022-07-23T11:52:56;99857.34;;;46.35;15.58
49423;BME280;36998;51.974;20.150;2022-07-23T11:55:22;99852.50;;;46.17;16.03
49423;BME280;36998;51.974;20.150;2022-07-23T11:57:50;99843.03;;;45.11;17.27
49423;BME280;36998;51.974;20.150;2022-07-23T12:00:18;99841.81;;;44.91;18.01
49423;BME280;36998;51.974;20.150;2022-07-23T12:02:50;99838.50;;;44.63;17.52
49423;BME280;36998;51.974;20.150;2022-07-23T12:05:20;99834.75;;;44.27;17.52
49423;BME280;36998;51.974;20.150;2022-07-23T12:07:49;99831.47;;;44.18;17.99
49423;BME280;36998;51.974;20.150;2022-07-23T12:10:16;99830.25;;;44.12;17.27
49423;BME280;36998;51.974;20.150;2022-07-23T12:12:45;99825.66;;;43.82;17.84
49423;BME280;36998;51.974;20.150;2022-07-23T12:15:13;99817.38;;;43.52;18.22
49423;BME280;36998;51.974;20.150;2022-07-23T12:17:41;99806.59;;;43.17;18.91
49423;BME280;36998;51.974;20.150;2022-07-23T12:20:09;99804.06;;;43.08;18.97
49423;BME280;36998;51.974;20.150;2022-07-23T12:22:38;99797.94;;;43.72;17.88
49423;BME280;36998;51.974;20.150;2022-07-23T12:25:14;99793.47;;;43.64;18.02
49423;BME280;36998;51.974;20.150;2022-07-23T12:27:41;99790.50;;;44.66;16.66
49423;BME280;36998;51.974;20.150;2022-07-23T12:30:21;99786.31;;;50.23;12.84
49423;BME280;36998;51.974;20.150;2022-07-23T12:32:49;99782.03;;;53.87;10.68
49423;BME280;36998;51.974;20.150;2022-07-23T12:35:15;99767.16;;;56.13;9.35
49423;BME280;36998;51.974;20.150;2022-07-23T12:37:43;99772.63;;;55.41;9.54
49423;BME280;36998;51.974;20.150;2022-07-23T12:40:30;99765.91;;;54.48;10.05
49423;BME280;36998;51.974;20.150;2022-07-23T12:43:04;99777.00;;;54.00;10.15
49423;BME280;36998;51.974;20.150;2022-07-23T12:46:24;99777.06;;;52.87;10.82
49423;BME280;36998;51.974;20.150;2022-07-23T12:48:32;99776.84;;;50.43;12.43
49423;BME280;36998;51.974;20.150;2022-07-23T12:51:04;99774.03;;;50.88;11.94
49423;BME280;36998;51.974;20.150;2022-07-23T12:53:46;99771.59;;;52.54;10.87
49423;BME280;36998;51.974;20.150;2022-07-23T12:56:18;99765.16;;;50.99;11.44
49423;BME280;36998;51.974;20.150;2022-07-23T12:58:49;99762.19;;;49.44;12.39
49423;BME280;36998;51.974;20.150;2022-07-23T13:04:11;99753.09;;;46.64;14.52
49423;BME280;36998;51.974;20.150;2022-07-23T13:06:51;99758.16;;;45.65;15.05
49423;BME280;36998;51.974;20.150;2022-07-23T13:09:19;99763.25;;;44.82;16.33
49423;BME280;36998;51.974;20.150;2022-07-23T13:11:46;99761.44;;;43.88;17.08
49423;BME280;36998;51.974;20.150;2022-07-23T13:14:12;99756.53;;;43.01;18.30
49423;BME280;36998;51.974;20.150;2022-07-23T13:16:39;99749.34;;;42.22;18.70
49423;BME280;36998;51.974;20.150;2022-07-23T13:19:05;99749.66;;;41.46;19.16
49423;BME280;36998;51.974;20.150;2022-07-23T13:21:32;99750.53;;;40.70;20.28